sensor_id;sensor_type;location;lat;lon;timestamp;P1;durP1;ratioP1;P2;durP2;ratioP2
13269;SDS011;6703;51.994;7.570;2023-11-19T00:01:03;0.00;;;0.00;;
13269;SDS011;6703;51.994;7.570;2023-11-19T00:03:32;0.00;;;0.00;;
13269;SDS011;6703;51.994;7.570;2023-11-19T00:06:01;0.00;;;0.00;;
13269;SDS011;6703;51.994;7.570;2023-11-19T00:08:32;0.00;;;0.00;;
13269;SDS011;6703;51.994;7.570;2023-11-19T00:11:00;0.00;;;0.00;;
13269;SDS011;6703;51.994;7.570;2023-11-19T00:13:29;0.30;;;0.30;;
13269;SDS011;6703;51.994;7.570;2023-11-19T00:15:58;0.70;;;0.70;;
13269;SDS011;6703;51.994;7.570;2023-11-19T00:18:25;0.03;;;0.03;;
13269;SDS011;6703;51.994;7.570;2023-11-19T00:20:54;0.20;;;0.20;;
13269;SDS011;6703;51.994;7.570;2023-11-19T00:23:22;0.10;;;0.10;;
13269;SDS011;6703;51.994;7.570;2023-11-19T00:25:51;0.00;;;0.00;;
13269;SDS011;6703;51.994;7.570;2023-11-19T00:28:19;0.30;;;0.30;;
13269;SDS011;6703;51.994;7.570;2023-11-19T00:30:47;0.00;;;0.00;;
13269;SDS011;6703;51.994;7.570;2023-11-19T00:33:15;0.00;;;0.00;;
13269;SDS011;6703;51.994;7.570;2023-11-19T00:35:44;0.00;;;0.00;;
13269;SDS011;6703;51.994;7.570;2023-11-19T00:38:12;0.00;;;0.00;;
13269;SDS011;6703;51.994;7.570;2023-11-19T00:40:40;0.00;;;0.00;;
13269;SDS011;6703;51.994;7.570;2023-11-19T00:43:09;0.00;;;0.00;;
13269;SDS011;6703;51.994;7.570;2023-11-19T00:45:37;0.00;;;0.00;;
13269;SDS011;6703;51.994;7.570;2023-11-19T00:48:05;0.00;;;0.00;;
13269;SDS011;6703;51.994;7.570;2023-11-19T00:50:33;0.00;;;0.00;;
13269;SDS011;6703;51.994;7.570;2023-11-19T00:53:05;0.00;;;0.00;;
13269;SDS011;6703;51.994;7.570;2023-11-19T00:55:35;0.40;;;0.30;;
13269;SDS011;6703;51.994;7.570;2023-11-19T00:58:13;0.00;;;0.00;;
13269;SDS011;6703;51.994;7.570;2023-11-19T01:00:42;0.00;;;0.00;;
13269;SDS011;6703;51.994;7.570;2023-11-19T01:03:11;0.50;;;0.20;;
13269;SDS011;6703;51.994;7.570;2023-11-19T01:05:39;0.00;;;0.00;;
13269;SDS011;6703;51.994;7.570;2023-11-19T01:08:07;0.22;;;0.22;;
13269;SDS011;6703;51.994;7.570;2023-11-19T01:10:36;0.20;;;0.20;;
13269;SDS011;6703;51.994;7.570;2023-11-19T01:13:04;0.00;;;0.00;;
13269;SDS011;6703;51.994;7.570;2023-11-19T01:15:34;0.00;;;0.00;;
13269;SDS011;6703;51.994;7.570;2023-11-19T01:18:02;0.00;;;0.00;;
13269;SDS011;6703;51.994;7.570;2023-11-19T01:20:32;20.20;;;2.30;;
13269;SDS011;6703;51.994;7.570;2023-11-19T01:23:01;0.00;;;0.00;;
13269;SDS011;6703;51.994;7.570;2023-11-19T01:25:29;0.30;;;0.30;;
13269;SDS011;6703;51.994;7.570;2023-11-19T01:27:57;0.20;;;0.20;;
13269;SDS011;6703;51.994;7.570;2023-11-19T01:30:25;0.30;;;0.10;;
13269;SDS011;6703;51.994;7.570;2023-11-19T01:32:55;0.00;;;0.00;;
13269;SDS011;6703;51.994;7.570;2023-11-19T01:35:23;0.00;;;0.00;;
13269;SDS011;6703;51.994;7.570;2023-11-19T01:37:53;0.90;;;0.40;;
13269;SDS011;6703;51.994;7.570;2023-11-19T01:40:21;0.30;;;0.30;;
13269;SDS011;6703;51.994;7.570;2023-11-19T01:42:49;0.00;;;0.00;;
13269;SDS011;6703;51.994;7.570;2023-11-19T01:45:21;0.50;;;0.50;;
13269;SDS011;6703;51.994;7.570;2023-11-19T01:47:55;0.00;;;0.00;;
13269;SDS011;6703;51.994;7.570;2023-11-19T01:50:28;0.00;;;0.00;;
13269;SDS011;6703;51.994;7.570;2023-11-19T01:52:56;0.10;;;0.10;;
13269;SDS011;6703;51.994;7.570;2023-11-19T01:55:25;1.60;;;0.40;;
13269;SDS011;6703;51.994;7.570;2023-11-19T01:57:55;0.00;;;0.00;;
13269;SDS011;6703;51.994;7.570;2023-11-19T02:00:27;2.60;;;0.50;;
13269;SDS011;6703;51.994;7.570;2023-11-19T02:02:56;0.10;;;0.10;;
13269;SDS011;6703;51.994;7.570;2023-11-19T02:05:24;0.00;;;0.00;;
13269;SDS011;6703;51.994;7.570;2023-11-19T02:07:53;0.20;;;0.20;;
13269;SDS011;6703;51.994;7.570;2023-11-19T02:10:21;0.00;;;0.00;;
13269;SDS011;6703;51.994;7.570;2023-11-19T02:12:52;0.90;;;0.30;;
13269;SDS011;6703;51.994;7.570;2023-11-19T02:15:32;0.10;;;0.10;;
13269;SDS011;6703;51.994;7.570;2023-11-19T02:18:21;0.40;;;0.30;;
13269;SDS011;6703;51.994;7.570;2023-11-19T02:20:49;0.00;;;0.00;;
13269;SDS011;6703;51.994;7.570;2023-11-19T02:23:19;0.15;;;0.10;;
13269;SDS011;6703;51.994;7.570;2023-11-19T02:25:50;0.00;;;0.00;;
13269;SDS011;6703;51.994;7.570;2023-11-19T02:28:25;0.00;;;0.00;;
13269;SDS011;6703;51.994;7.570;2023-11-19T02:30:53;0.10;;;0.10;;
13269;SDS011;6703;51.994;7.570;2023-11-19T02:33:21;0.70;;;0.70;;
13269;SDS011;6703;51.994;7.570;2023-11-19T02:35:49;0.00;;;0.00;;
13269;SDS011;6703;51.994;7.570;2023-11-19T02:38:17;0.10;;;0.10;;
13269;SDS011;6703;51.994;7.570;2023-11-19T02:40:45;0.50;;;0.50;;
13269;SDS011;6703;51.994;7.570;2023-11-19T02:43:13;0.15;;;0.15;;
13269;SDS011;6703;51.994;7.570;2023-11-19T02:45:43;0.30;;;0.30;;
13269;SDS011;6703;51.994;7.570;2023-11-19T02:48:12;0.00;;;0.00;;
13269;SDS011;6703;51.994;7.570;2023-11-19T02:50:40;0.00;;;0.00;;
13269;SDS011;6703;51.994;7.570;2023-11-19T02:53:09;0.70;;;0.30;;
13269;SDS011;6703;51.994;7.570;2023-11-19T02:55:39;0.00;;;0.00;;
13269;SDS011;6703;51.994;7.570;2023-11-19T02:58:07;0.00;;;0.00;;
13269;SDS011;6703;51.994;7.570;2023-11-19T03:00:47;0.20;;;0.10;;
13269;SDS011;6703;51.994;7.570;2023-11-19T03:03:21;0.50;;;0.50;;
13269;SDS011;6703;51.994;7.570;2023-11-19T03:05:52;0.40;;;0.40;;
13269;SDS011;6703;51.994;7.570;2023-11-19T03:08:20;0.00;;;0.00;;
13269;SDS011;6703;51.994;7.570;2023-11-19T03:10:49;0.00;;;0.00;;
13269;SDS011;6703;51.994;7.570;2023-11-19T03:13:17;0.20;;;0.20;;
13269;SDS011;6703;51.994;7.570;2023-11-19T03:15:45;19.60;;;0.60;;
13269;SDS011;6703;51.994;7.570;2023-11-19T03:18:15;0.08;;;0.08;;
13269;SDS011;6703;51.994;7.570;2023-11-19T03:20:43;0.00;;;0.00;;
13269;SDS011;6703;51.994;7.570;2023-11-19T03:23:11;0.30;;;0.30;;
13269;SDS011;6703;51.994;7.570;2023-11-19T03:25:39;0.10;;;0.10;;
13269;SDS011;6703;51.994;7.570;2023-11-19T03:28:08;0.30;;;0.30;;
13269;SDS011;6703;51.994;7.570;2023-11-19T03:30:37;0.00;;;0.00;;
13269;SDS011;6703;51.994;7.570;2023-11-19T03:33:05;2.60;;;0.40;;
13269;SDS011;6703;51.994;7.570;2023-11-19T03:35:35;0.00;;;0.00;;
13269;SDS011;6703;51.994;7.570;2023-11-19T03:38:03;0.00;;;0.00;;
13269;SDS011;6703;51.994;7.570;2023-11-19T03:40:30;0.00;;;0.00;;
13269;SDS011;6703;51.994;7.570;2023-11-19T03:42:58;0.00;;;0.00;;
13269;SDS011;6703;51.994;7.570;2023-11-19T03:45:26;0.30;;;0.20;;
13269;SDS011;6703;51.994;7.570;2023-11-19T03:47:54;0.00;;;0.00;;
13269;SDS011;6703;51.994;7.570;2023-11-19T03:50:22;0.10;;;0.10;;
13269;SDS011;6703;51.994;7.570;2023-11-19T03:52:52;0.00;;;0.00;;
13269;SDS011;6703;51.994;7.570;2023-11-19T03:55:20;2.10;;;1.90;;
13269;SDS011;6703;51.994;7.570;2023-11-19T03:57:48;0.10;;;0.10;;
13269;SDS011;6703;51.994;7.570;2023-11-19T04:00:16;0.00;;;0.00;;
13269;SDS011;6703;51.994;7.570;2023-11-19T04:02:47;1.10;;;0.90;;
13269;SDS011;6703;51.994;7.570;2023-11-19T04:05:15;0.00;;;0.00;;
13269;SDS011;6703;51.994;7.570;2023-11-19T04:07:45;0.30;;;0.30;;
13269;SDS011;6703;51.994;7.570;2023-11-19T04:10:15;0.00;;;0.00;;
13269;SDS011;6703;51.994;7.570;2023-11-19T04:12:44;6.60;;;0.90;;
13269;SDS011;6703;51.994;7.570;2023-11-19T04:15:13;0.00;;;0.00;;
13269;SDS011;6703;51.994;7.570;2023-11-19T04:17:41;0.00;;;0.00;;
13269;SDS011;6703;51.994;7.570;2023-11-19T04:20:10;0.00;;;0.00;;
13269;SDS011;6703;51.994;7.570;2023-11-19T04:22:41;0.00;;;0.00;;
13269;SDS011;6703;51.994;7.570;2023-11-19T04:25:09;0.30;;;0.30;;
13269;SDS011;6703;51.994;7.570;2023-11-19T04:27:39;0.00;;;0.00;;
13269;SDS011;6703;51.994;7.570;2023-11-19T04:30:07;0.10;;;0.10;;
13269;SDS011;6703;51.994;7.570;2023-11-19T04:32:37;0.30;;;0.30;;
13269;SDS011;6703;51.994;7.570;2023-11-19T04:35:06;0.00;;;0.00;;
13269;SDS011;6703;51.994;7.570;2023-11-19T04:37:36;0.00;;;0.00;;
13269;SDS011;6703;51.994;7.570;2023-11-19T04:40:04;0.00;;;0.00;;
13269;SDS011;6703;51.994;7.570;2023-11-19T04:42:33;1.90;;;1.00;;
13269;SDS011;6703;51.994;7.570;2023-11-19T04:45:03;0.00;;;0.00;;
13269;SDS011;6703;51.994;7.570;2023-11-19T04:47:33;0.00;;;0.00;;
13269;SDS011;6703;51.994;7.570;2023-11-19T04:50:01;0.00;;;0.00;;
13269;SDS011;6703;51.994;7.570;2023-11-19T04:52:29;0.30;;;0.30;;
13269;SDS011;6703;51.994;7.570;2023-11-19T04:54:57;0.00;;;0.00;;
13269;SDS011;6703;51.994;7.570;2023-11-19T04:57:25;0.00;;;0.00;;
13269;SDS011;6703;51.994;7.570;2023-11-19T04:59:53;0.08;;;0.08;;
13269;SDS011;6703;51.994;7.570;2023-11-19T05:02:22;0.00;;;0.00;;
13269;SDS011;6703;51.994;7.570;2023-11-19T05:04:50;0.00;;;0.00;;
13269;SDS011;6703;51.994;7.570;2023-11-19T05:07:18;0.00;;;0.00;;
13269;SDS011;6703;51.994;7.570;2023-11-19T05:09:46;0.00;;;0.00;;
13269;SDS011;6703;51.994;7.570;2023-11-19T05:12:14;1.30;;;1.00;;
13269;SDS011;6703;51.994;7.570;2023-11-19T05:14:44;0.00;;;0.00;;
13269;SDS011;6703;51.994;7.570;2023-11-19T05:17:16;0.00;;;0.00;;
13269;SDS011;6703;51.994;7.570;2023-11-19T05:19:46;0.30;;;0.30;;
13269;SDS011;6703;51.994;7.570;2023-11-19T05:22:15;0.20;;;0.20;;
13269;SDS011;6703;51.994;7.570;2023-11-19T05:24:43;0.00;;;0.00;;
13269;SDS011;6703;51.994;7.570;2023-11-19T05:27:11;0.47;;;0.47;;
13269;SDS011;6703;51.994;7.570;2023-11-19T05:29:40;0.00;;;0.00;;
13269;SDS011;6703;51.994;7.570;2023-11-19T05:32:09;5.90;;;0.80;;
13269;SDS011;6703;51.994;7.570;2023-11-19T05:34:38;0.00;;;0.00;;
13269;SDS011;6703;51.994;7.570;2023-11-19T05:37:19;0.10;;;0.10;;
13269;SDS011;6703;51.994;7.570;2023-11-19T05:39:47;0.20;;;0.20;;
13269;SDS011;6703;51.994;7.570;2023-11-19T05:42:15;0.25;;;0.25;;
13269;SDS011;6703;51.994;7.570;2023-11-19T05:44:43;0.00;;;0.00;;
13269;SDS011;6703;51.994;7.570;2023-11-19T05:47:11;1.40;;;0.80;;
13269;SDS011;6703;51.994;7.570;2023-11-19T05:49:40;0.00;;;0.00;;
13269;SDS011;6703;51.994;7.570;2023-11-19T05:52:07;0.10;;;0.10;;
13269;SDS011;6703;51.994;7.570;2023-11-19T05:54:39;0.00;;;0.00;;
13269;SDS011;6703;51.994;7.570;2023-11-19T05:57:08;0.60;;;0.10;;
13269;SDS011;6703;51.994;7.570;2023-11-19T05:59:36;0.20;;;0.20;;
13269;SDS011;6703;51.994;7.570;2023-11-19T06:02:04;0.00;;;0.00;;
13269;SDS011;6703;51.994;7.570;2023-11-19T06:04:33;0.20;;;0.20;;
13269;SDS011;6703;51.994;7.570;2023-11-19T06:07:01;0.10;;;0.10;;
13269;SDS011;6703;51.994;7.570;2023-11-19T06:09:28;6.60;;;1.00;;
13269;SDS011;6703;51.994;7.570;2023-11-19T06:11:58;0.10;;;0.10;;
13269;SDS011;6703;51.994;7.570;2023-11-19T06:14:28;1.20;;;1.10;;
13269;SDS011;6703;51.994;7.570;2023-11-19T06:16:55;0.00;;;0.00;;
13269;SDS011;6703;51.994;7.570;2023-11-19T06:19:23;0.20;;;0.20;;
13269;SDS011;6703;51.994;7.570;2023-11-19T06:21:56;0.10;;;0.10;;
13269;SDS011;6703;51.994;7.570;2023-11-19T06:24:24;0.00;;;0.00;;
13269;SDS011;6703;51.994;7.570;2023-11-19T06:26:52;0.30;;;0.30;;
13269;SDS011;6703;51.994;7.570;2023-11-19T06:29:21;16.90;;;1.10;;
13269;SDS011;6703;51.994;7.570;2023-11-19T06:31:50;2.60;;;0.60;;
13269;SDS011;6703;51.994;7.570;2023-11-19T06:34:17;0.08;;;0.08;;
13269;SDS011;6703;51.994;7.570;2023-11-19T06:36:45;0.70;;;0.70;;
13269;SDS011;6703;51.994;7.570;2023-11-19T06:39:14;4.35;;;0.28;;
13269;SDS011;6703;51.994;7.570;2023-11-19T06:41:45;0.00;;;0.00;;
13269;SDS011;6703;51.994;7.570;2023-11-19T06:44:13;0.00;;;0.00;;
13269;SDS011;6703;51.994;7.570;2023-11-19T06:46:42;0.00;;;0.00;;
13269;SDS011;6703;51.994;7.570;2023-11-19T06:49:10;0.00;;;0.00;;
13269;SDS011;6703;51.994;7.570;2023-11-19T06:51:41;0.00;;;0.00;;
13269;SDS011;6703;51.994;7.570;2023-11-19T06:54:09;0.10;;;0.10;;
13269;SDS011;6703;51.994;7.570;2023-11-19T06:56:37;0.10;;;0.10;;
13269;SDS011;6703;51.994;7.570;2023-11-19T06:59:05;0.00;;;0.00;;
13269;SDS011;6703;51.994;7.570;2023-11-19T07:01:34;0.00;;;0.00;;
13269;SDS011;6703;51.994;7.570;2023-11-19T07:04:04;0.00;;;0.00;;
13269;SDS011;6703;51.994;7.570;2023-11-19T07:06:35;0.10;;;0.10;;
13269;SDS011;6703;51.994;7.570;2023-11-19T07:09:04;0.00;;;0.00;;
13269;SDS011;6703;51.994;7.570;2023-11-19T07:11:36;0.00;;;0.00;;
13269;SDS011;6703;51.994;7.570;2023-11-19T07:14:06;0.00;;;0.00;;
13269;SDS011;6703;51.994;7.570;2023-11-19T07:16:34;0.10;;;0.10;;
13269;SDS011;6703;51.994;7.570;2023-11-19T07:19:05;0.00;;;0.00;;
13269;SDS011;6703;51.994;7.570;2023-11-19T07:21:33;0.00;;;0.00;;
13269;SDS011;6703;51.994;7.570;2023-11-19T07:24:02;1.00;;;0.65;;
13269;SDS011;6703;51.994;7.570;2023-11-19T07:26:30;0.10;;;0.10;;
13269;SDS011;6703;51.994;7.570;2023-11-19T07:28:58;0.30;;;0.30;;
13269;SDS011;6703;51.994;7.570;2023-11-19T07:31:28;1.30;;;1.20;;
13269;SDS011;6703;51.994;7.570;2023-11-19T07:33:55;0.00;;;0.00;;
13269;SDS011;6703;51.994;7.570;2023-11-19T07:36:25;0.50;;;0.50;;
13269;SDS011;6703;51.994;7.570;2023-11-19T07:38:52;0.08;;;0.08;;
13269;SDS011;6703;51.994;7.570;2023-11-19T07:41:23;0.60;;;0.52;;
13269;SDS011;6703;51.994;7.570;2023-11-19T07:43:52;0.20;;;0.20;;
13269;SDS011;6703;51.994;7.570;2023-11-19T07:46:21;0.40;;;0.40;;
13269;SDS011;6703;51.994;7.570;2023-11-19T07:48:49;0.00;;;0.00;;
13269;SDS011;6703;51.994;7.570;2023-11-19T07:51:16;0.00;;;0.00;;
13269;SDS011;6703;51.994;7.570;2023-11-19T07:53:46;0.00;;;0.00;;
13269;SDS011;6703;51.994;7.570;2023-11-19T07:56:14;1.60;;;1.50;;
13269;SDS011;6703;51.994;7.570;2023-11-19T07:58:42;0.00;;;0.00;;
13269;SDS011;6703;51.994;7.570;2023-11-19T08:01:09;0.00;;;0.00;;
13269;SDS011;6703;51.994;7.570;2023-11-19T08:03:37;2.80;;;0.60;;
13269;SDS011;6703;51.994;7.570;2023-11-19T08:06:06;6.70;;;3.10;;
13269;SDS011;6703;51.994;7.570;2023-11-19T08:08:35;0.00;;;0.00;;
13269;SDS011;6703;51.994;7.570;2023-11-19T08:11:06;1.50;;;1.10;;
13269;SDS011;6703;51.994;7.570;2023-11-19T08:13:35;1.80;;;1.40;;
13269;SDS011;6703;51.994;7.570;2023-11-19T08:16:03;2.13;;;1.38;;
13269;SDS011;6703;51.994;7.570;2023-11-19T08:18:32;0.20;;;0.20;;
13269;SDS011;6703;51.994;7.570;2023-11-19T08:20:59;0.00;;;0.00;;
13269;SDS011;6703;51.994;7.570;2023-11-19T08:23:27;5.90;;;2.20;;
13269;SDS011;6703;51.994;7.570;2023-11-19T08:25:56;0.10;;;0.10;;
13269;SDS011;6703;51.994;7.570;2023-11-19T08:28:25;7.30;;;1.05;;
13269;SDS011;6703;51.994;7.570;2023-11-19T08:30:53;0.60;;;0.60;;
13269;SDS011;6703;51.994;7.570;2023-11-19T08:33:20;0.00;;;0.00;;
13269;SDS011;6703;51.994;7.570;2023-11-19T08:35:50;0.00;;;0.00;;
13269;SDS011;6703;51.994;7.570;2023-11-19T08:38:17;0.10;;;0.10;;
13269;SDS011;6703;51.994;7.570;2023-11-19T08:40:49;0.00;;;0.00;;
13269;SDS011;6703;51.994;7.570;2023-11-19T08:43:16;0.00;;;0.00;;
13269;SDS011;6703;51.994;7.570;2023-11-19T08:45:46;0.60;;;0.60;;
13269;SDS011;6703;51.994;7.570;2023-11-19T08:48:14;0.22;;;0.22;;
13269;SDS011;6703;51.994;7.570;2023-11-19T08:50:41;3.00;;;1.10;;
13269;SDS011;6703;51.994;7.570;2023-11-19T08:53:10;3.78;;;0.57;;
13269;SDS011;6703;51.994;7.570;2023-11-19T08:55:38;0.30;;;0.30;;
13269;SDS011;6703;51.994;7.570;2023-11-19T08:58:06;6.00;;;0.50;;
13269;SDS011;6703;51.994;7.570;2023-11-19T09:00:33;3.00;;;1.70;;
13269;SDS011;6703;51.994;7.570;2023-11-19T09:03:03;0.50;;;0.40;;
13269;SDS011;6703;51.994;7.570;2023-11-19T09:05:31;0.00;;;0.00;;
13269;SDS011;6703;51.994;7.570;2023-11-19T09:08:00;0.70;;;0.70;;
13269;SDS011;6703;51.994;7.570;2023-11-19T09:10:27;2.95;;;0.15;;
13269;SDS011;6703;51.994;7.570;2023-11-19T09:12:56;0.00;;;0.00;;
13269;SDS011;6703;51.994;7.570;2023-11-19T09:15:24;0.08;;;0.08;;
13269;SDS011;6703;51.994;7.570;2023-11-19T09:17:52;0.00;;;0.00;;
13269;SDS011;6703;51.994;7.570;2023-11-19T09:20:21;1.20;;;1.10;;
13269;SDS011;6703;51.994;7.570;2023-11-19T09:22:49;0.05;;;0.05;;
13269;SDS011;6703;51.994;7.570;2023-11-19T09:25:18;0.40;;;0.40;;
13269;SDS011;6703;51.994;7.570;2023-11-19T09:27:45;1.30;;;0.30;;
13269;SDS011;6703;51.994;7.570;2023-11-19T09:30:14;0.00;;;0.00;;
13269;SDS011;6703;51.994;7.570;2023-11-19T09:32:42;0.10;;;0.10;;
13269;SDS011;6703;51.994;7.570;2023-11-19T09:35:10;0.00;;;0.00;;
13269;SDS011;6703;51.994;7.570;2023-11-19T09:37:41;0.00;;;0.00;;
13269;SDS011;6703;51.994;7.570;2023-11-19T09:40:11;0.43;;;0.43;;
13269;SDS011;6703;51.994;7.570;2023-11-19T09:42:42;0.00;;;0.00;;
13269;SDS011;6703;51.994;7.570;2023-11-19T09:45:13;0.00;;;0.00;;
13269;SDS011;6703;51.994;7.570;2023-11-19T09:47:43;1.65;;;0.95;;
13269;SDS011;6703;51.994;7.570;2023-11-19T09:50:14;0.40;;;0.40;;
13269;SDS011;6703;51.994;7.570;2023-11-19T09:52:45;0.00;;;0.00;;
13269;SDS011;6703;51.994;7.570;2023-11-19T09:55:14;4.00;;;1.10;;
13269;SDS011;6703;51.994;7.570;2023-11-19T09:57:42;0.03;;;0.03;;
13269;SDS011;6703;51.994;7.570;2023-11-19T10:00:11;0.25;;;0.10;;
13269;SDS011;6703;51.994;7.570;2023-11-19T10:02:41;0.30;;;0.30;;
13269;SDS011;6703;51.994;7.570;2023-11-19T10:05:13;0.03;;;0.03;;
13269;SDS011;6703;51.994;7.570;2023-11-19T10:07:42;3.50;;;1.30;;
13269;SDS011;6703;51.994;7.570;2023-11-19T10:10:12;3.80;;;1.80;;
13269;SDS011;6703;51.994;7.570;2023-11-19T10:12:44;13.30;;;2.05;;
13269;SDS011;6703;51.994;7.570;2023-11-19T10:15:17;19.50;;;2.57;;
13269;SDS011;6703;51.994;7.570;2023-11-19T10:17:49;19.93;;;3.60;;
13269;SDS011;6703;51.994;7.570;2023-11-19T10:20:17;24.70;;;3.42;;
13269;SDS011;6703;51.994;7.570;2023-11-19T10:22:45;28.05;;;3.05;;
13269;SDS011;6703;51.994;7.570;2023-11-19T10:25:24;31.25;;;4.50;;
13269;SDS011;6703;51.994;7.570;2023-11-19T10:27:53;39.77;;;4.90;;
13269;SDS011;6703;51.994;7.570;2023-11-19T10:30:22;42.05;;;5.22;;
13269;SDS011;6703;51.994;7.570;2023-11-19T10:33:05;34.85;;;4.68;;
13269;SDS011;6703;51.994;7.570;2023-11-19T10:35:34;28.75;;;3.70;;
13269;SDS011;6703;51.994;7.570;2023-11-19T10:38:13;21.90;;;3.40;;
13269;SDS011;6703;51.994;7.570;2023-11-19T10:40:42;31.52;;;4.25;;
13269;SDS011;6703;51.994;7.570;2023-11-19T10:43:11;31.92;;;4.40;;
13269;SDS011;6703;51.994;7.570;2023-11-19T10:45:39;34.83;;;4.85;;
13269;SDS011;6703;51.994;7.570;2023-11-19T10:48:07;35.08;;;4.47;;
13269;SDS011;6703;51.994;7.570;2023-11-19T10:50:36;41.85;;;4.63;;
13269;SDS011;6703;51.994;7.570;2023-11-19T10:53:20;36.00;;;4.43;;
13269;SDS011;6703;51.994;7.570;2023-11-19T10:55:49;40.58;;;5.78;;
13269;SDS011;6703;51.994;7.570;2023-11-19T10:58:18;37.13;;;4.28;;
13269;SDS011;6703;51.994;7.570;2023-11-19T11:00:47;29.13;;;3.97;;
13269;SDS011;6703;51.994;7.570;2023-11-19T11:03:20;35.33;;;4.07;;
13269;SDS011;6703;51.994;7.570;2023-11-19T11:05:49;33.17;;;4.22;;
13269;SDS011;6703;51.994;7.570;2023-11-19T11:08:18;29.57;;;3.37;;
13269;SDS011;6703;51.994;7.570;2023-11-19T11:10:48;37.10;;;4.40;;
13269;SDS011;6703;51.994;7.570;2023-11-19T11:13:23;41.33;;;4.75;;
13269;SDS011;6703;51.994;7.570;2023-11-19T11:15:53;37.58;;;4.43;;
13269;SDS011;6703;51.994;7.570;2023-11-19T11:18:25;32.97;;;4.18;;
13269;SDS011;6703;51.994;7.570;2023-11-19T11:20:54;32.67;;;3.78;;
13269;SDS011;6703;51.994;7.570;2023-11-19T11:23:29;28.77;;;4.53;;
13269;SDS011;6703;51.994;7.570;2023-11-19T11:26:12;35.67;;;4.28;;
13269;SDS011;6703;51.994;7.570;2023-11-19T11:28:48;28.95;;;3.33;;
13269;SDS011;6703;51.994;7.570;2023-11-19T11:31:26;38.35;;;5.10;;
13269;SDS011;6703;51.994;7.570;2023-11-19T11:34:02;29.85;;;4.32;;
13269;SDS011;6703;51.994;7.570;2023-11-19T11:36:40;32.15;;;4.22;;
13269;SDS011;6703;51.994;7.570;2023-11-19T11:39:14;29.83;;;4.25;;
13269;SDS011;6703;51.994;7.570;2023-11-19T11:41:43;35.75;;;4.35;;
13269;SDS011;6703;51.994;7.570;2023-11-19T11:44:11;34.60;;;3.97;;
13269;SDS011;6703;51.994;7.570;2023-11-19T11:46:54;28.95;;;4.28;;
13269;SDS011;6703;51.994;7.570;2023-11-19T11:49:25;33.50;;;4.50;;
13269;SDS011;6703;51.994;7.570;2023-11-19T11:51:57;24.67;;;3.92;;
13269;SDS011;6703;51.994;7.570;2023-11-19T11:54:26;24.00;;;4.35;;
13269;SDS011;6703;51.994;7.570;2023-11-19T11:57:06;40.00;;;4.95;;
13269;SDS011;6703;51.994;7.570;2023-11-19T11:59:48;37.30;;;4.43;;
13269;SDS011;6703;51.994;7.570;2023-11-19T12:02:16;32.95;;;4.10;;
13269;SDS011;6703;51.994;7.570;2023-11-19T12:04:46;30.75;;;4.40;;
13269;SDS011;6703;51.994;7.570;2023-11-19T12:07:17;30.63;;;3.88;;
13269;SDS011;6703;51.994;7.570;2023-11-19T12:09:51;32.33;;;3.80;;
13269;SDS011;6703;51.994;7.570;2023-11-19T12:12:23;35.92;;;4.55;;
13269;SDS011;6703;51.994;7.570;2023-11-19T12:15:03;33.90;;;4.57;;
13269;SDS011;6703;51.994;7.570;2023-11-19T12:17:37;26.23;;;3.87;;
13269;SDS011;6703;51.994;7.570;2023-11-19T12:20:11;30.67;;;4.20;;
13269;SDS011;6703;51.994;7.570;2023-11-19T12:22:39;27.85;;;3.45;;
13269;SDS011;6703;51.994;7.570;2023-11-19T12:25:09;38.83;;;4.13;;
13269;SDS011;6703;51.994;7.570;2023-11-19T12:27:40;35.97;;;3.92;;
13269;SDS011;6703;51.994;7.570;2023-11-19T12:30:09;18.88;;;3.50;;
13269;SDS011;6703;51.994;7.570;2023-11-19T12:32:37;21.00;;;3.50;;
13269;SDS011;6703;51.994;7.570;2023-11-19T12:35:07;28.52;;;4.13;;
13269;SDS011;6703;51.994;7.570;2023-11-19T12:37:41;30.25;;;3.42;;
13269;SDS011;6703;51.994;7.570;2023-11-19T12:40:11;29.58;;;3.75;;
13269;SDS011;6703;51.994;7.570;2023-11-19T12:42:41;28.83;;;3.55;;
13269;SDS011;6703;51.994;7.570;2023-11-19T12:45:10;35.67;;;4.68;;
13269;SDS011;6703;51.994;7.570;2023-11-19T12:47:38;30.33;;;3.67;;
13269;SDS011;6703;51.994;7.570;2023-11-19T12:50:07;29.73;;;3.97;;
13269;SDS011;6703;51.994;7.570;2023-11-19T12:52:36;32.95;;;4.30;;
13269;SDS011;6703;51.994;7.570;2023-11-19T12:55:05;31.30;;;4.90;;
13269;SDS011;6703;51.994;7.570;2023-11-19T12:57:37;29.35;;;3.83;;
13269;SDS011;6703;51.994;7.570;2023-11-19T13:00:17;29.55;;;3.83;;
13269;SDS011;6703;51.994;7.570;2023-11-19T13:02:47;34.08;;;5.25;;
13269;SDS011;6703;51.994;7.570;2023-11-19T13:05:23;29.05;;;3.80;;
13269;SDS011;6703;51.994;7.570;2023-11-19T13:07:57;40.58;;;5.00;;
13269;SDS011;6703;51.994;7.570;2023-11-19T13:10:27;32.83;;;3.90;;
13269;SDS011;6703;51.994;7.570;2023-11-19T13:13:02;31.58;;;3.53;;
13269;SDS011;6703;51.994;7.570;2023-11-19T13:15:34;26.27;;;3.42;;
13269;SDS011;6703;51.994;7.570;2023-11-19T13:18:02;32.13;;;3.90;;
13269;SDS011;6703;51.994;7.570;2023-11-19T13:20:31;28.92;;;3.33;;
13269;SDS011;6703;51.994;7.570;2023-11-19T13:23:00;30.67;;;4.32;;
13269;SDS011;6703;51.994;7.570;2023-11-19T13:25:29;22.67;;;3.63;;
13269;SDS011;6703;51.994;7.570;2023-11-19T13:27:58;29.02;;;3.30;;
13269;SDS011;6703;51.994;7.570;2023-11-19T13:30:27;26.23;;;3.28;;
13269;SDS011;6703;51.994;7.570;2023-11-19T13:32:57;33.93;;;4.43;;
13269;SDS011;6703;51.994;7.570;2023-11-19T13:35:25;32.30;;;3.83;;
13269;SDS011;6703;51.994;7.570;2023-11-19T13:37:54;31.70;;;3.63;;
13269;SDS011;6703;51.994;7.570;2023-11-19T13:40:22;32.20;;;4.35;;
13269;SDS011;6703;51.994;7.570;2023-11-19T13:42:51;30.65;;;3.70;;
13269;SDS011;6703;51.994;7.570;2023-11-19T13:45:19;36.22;;;3.92;;
13269;SDS011;6703;51.994;7.570;2023-11-19T13:47:47;33.40;;;3.95;;
13269;SDS011;6703;51.994;7.570;2023-11-19T13:50:16;29.40;;;4.00;;
13269;SDS011;6703;51.994;7.570;2023-11-19T13:52:45;29.33;;;3.63;;
13269;SDS011;6703;51.994;7.570;2023-11-19T13:55:14;24.48;;;3.13;;
13269;SDS011;6703;51.994;7.570;2023-11-19T13:57:42;27.85;;;3.05;;
13269;SDS011;6703;51.994;7.570;2023-11-19T14:00:11;33.50;;;3.75;;
13269;SDS011;6703;51.994;7.570;2023-11-19T14:02:40;24.37;;;2.83;;
13269;SDS011;6703;51.994;7.570;2023-11-19T14:05:08;24.45;;;2.88;;
13269;SDS011;6703;51.994;7.570;2023-11-19T14:07:39;26.73;;;3.30;;
13269;SDS011;6703;51.994;7.570;2023-11-19T14:10:07;14.40;;;2.17;;
13269;SDS011;6703;51.994;7.570;2023-11-19T14:12:36;25.50;;;3.45;;
13269;SDS011;6703;51.994;7.570;2023-11-19T14:15:04;27.98;;;3.28;;
13269;SDS011;6703;51.994;7.570;2023-11-19T14:17:33;27.40;;;3.63;;
13269;SDS011;6703;51.994;7.570;2023-11-19T14:20:02;26.10;;;3.17;;
13269;SDS011;6703;51.994;7.570;2023-11-19T14:22:30;15.95;;;2.92;;
13269;SDS011;6703;51.994;7.570;2023-11-19T14:25:00;25.25;;;3.10;;
13269;SDS011;6703;51.994;7.570;2023-11-19T14:27:28;24.65;;;3.75;;
13269;SDS011;6703;51.994;7.570;2023-11-19T14:29:56;25.15;;;3.00;;
13269;SDS011;6703;51.994;7.570;2023-11-19T14:32:24;27.30;;;3.53;;
13269;SDS011;6703;51.994;7.570;2023-11-19T14:34:52;21.47;;;3.00;;
13269;SDS011;6703;51.994;7.570;2023-11-19T14:37:20;20.48;;;2.80;;
13269;SDS011;6703;51.994;7.570;2023-11-19T14:39:48;28.27;;;3.30;;
13269;SDS011;6703;51.994;7.570;2023-11-19T14:42:18;27.87;;;3.83;;
13269;SDS011;6703;51.994;7.570;2023-11-19T14:44:46;31.90;;;3.08;;
13269;SDS011;6703;51.994;7.570;2023-11-19T14:47:14;21.77;;;3.20;;
13269;SDS011;6703;51.994;7.570;2023-11-19T14:49:42;30.27;;;4.07;;
13269;SDS011;6703;51.994;7.570;2023-11-19T14:52:10;22.75;;;2.80;;
13269;SDS011;6703;51.994;7.570;2023-11-19T14:54:41;23.35;;;3.40;;
13269;SDS011;6703;51.994;7.570;2023-11-19T14:57:09;28.83;;;3.38;;
13269;SDS011;6703;51.994;7.570;2023-11-19T14:59:38;31.67;;;3.25;;
13269;SDS011;6703;51.994;7.570;2023-11-19T15:02:06;27.55;;;2.92;;
13269;SDS011;6703;51.994;7.570;2023-11-19T15:04:34;28.70;;;3.10;;
13269;SDS011;6703;51.994;7.570;2023-11-19T15:07:02;28.83;;;3.63;;
13269;SDS011;6703;51.994;7.570;2023-11-19T15:09:54;22.48;;;2.95;;
13269;SDS011;6703;51.994;7.570;2023-11-19T15:12:22;33.28;;;3.42;;